createdAt,value
2018-11-28T00:00:10.178Z,42.40
2018-11-28T00:02:37.433Z,34.77
2018-11-28T00:05:07.748Z,38.77
2018-11-28T00:07:34.943Z,39.57
2018-11-28T00:10:02.226Z,42.67
2018-11-28T00:12:29.501Z,41.20
2018-11-28T00:14:56.786Z,39.40
2018-11-28T00:17:23.959Z,35.23
2018-11-28T00:19:52.115Z,37.00
2018-11-28T00:22:19.287Z,35.67
2018-11-28T00:24:46.462Z,43.30
2018-11-28T00:27:13.623Z,39.57
2018-11-28T00:29:40.799Z,39.13
2018-11-28T00:32:07.966Z,38.97
2018-11-28T00:34:35.154Z,39.50
2018-11-28T00:37:02.330Z,39.37
2018-11-28T00:39:29.541Z,35.87
2018-11-28T00:41:56.711Z,40.03
2018-11-28T00:44:23.861Z,36.90
2018-11-28T00:46:51.023Z,40.60
2018-11-28T00:49:18.218Z,40.47
2018-11-28T00:51:45.354Z,33.73
2018-11-28T00:54:13.875Z,35.83
2018-11-28T00:56:41.123Z,42.80
2018-11-28T00:59:08.323Z,38.43
2018-11-28T01:01:37.562Z,45.23
2018-11-28T01:04:04.738Z,36.87
2018-11-28T01:06:31.848Z,44.47
2018-11-28T01:08:59.002Z,34.53
2018-11-28T01:11:26.162Z,37.03
2018-11-28T01:13:53.306Z,36.23
2018-11-28T01:16:20.411Z,46.50
2018-11-28T01:18:47.571Z,44.53
2018-11-28T01:21:14.870Z,31.50
2018-11-28T01:23:42.046Z,35.67
2018-11-28T01:26:09.194Z,37.73
2018-11-28T01:28:36.347Z,42.30
2018-11-28T01:31:03.480Z,38.43
2018-11-28T01:33:30.660Z,41.33
2018-11-28T01:35:57.842Z,42.60
2018-11-28T01:38:24.977Z,37.57
2018-11-28T01:40:52.106Z,36.10
2018-11-28T01:43:19.298Z,42.07
2018-11-28T01:45:46.432Z,36.70
2018-11-28T01:48:13.596Z,47.37
2018-11-28T01:50:40.766Z,35.87
2018-11-28T01:53:07.932Z,39.97
2018-11-28T01:55:35.111Z,40.77
2018-11-28T01:58:02.305Z,32.93
2018-11-28T02:00:29.463Z,41.43
2018-11-28T02:02:58.020Z,44.67
2018-11-28T02:05:25.155Z,43.23
2018-11-28T02:07:52.331Z,45.80
2018-11-28T02:10:19.557Z,43.40
2018-11-28T02:12:46.739Z,40.80
2018-11-28T02:15:18.209Z,55.10
2018-11-28T02:17:45.482Z,40.33
2018-11-28T02:20:14.385Z,41.20
2018-11-28T02:22:41.546Z,41.07
2018-11-28T02:25:10.049Z,39.83
2018-11-28T02:27:37.171Z,38.33
2018-11-28T02:43:04.926Z,36.93
2018-11-28T02:45:32.161Z,41.50
2018-11-28T02:47:59.272Z,34.63
2018-11-28T02:50:26.386Z,56.83
2018-11-28T02:52:53.590Z,47.77
2018-11-28T02:55:20.782Z,53.57
2018-11-28T02:57:48.940Z,49.17
2018-11-28T03:00:24.323Z,39.77
2018-11-28T03:02:51.550Z,36.93
2018-11-28T03:05:18.767Z,49.13
2018-11-28T03:07:46.006Z,43.10
2018-11-28T03:10:17.969Z,47.70
2018-11-28T03:12:45.148Z,45.13
2018-11-28T03:15:13.695Z,46.10
2018-11-28T03:17:40.896Z,48.17
2018-11-28T03:20:09.155Z,41.00
2018-11-28T03:22:36.291Z,45.47
2018-11-28T03:25:03.987Z,47.60
2018-11-28T03:27:31.146Z,40.83
2018-11-28T03:29:58.292Z,41.83
2018-11-28T03:32:25.452Z,42.33
2018-11-28T03:34:52.611Z,50.63
2018-11-28T03:37:19.743Z,41.43
2018-11-28T03:39:46.915Z,48.03
2018-11-28T03:42:14.071Z,50.67
2018-11-28T03:44:41.264Z,48.47
2018-11-28T03:47:08.412Z,53.00
2018-11-28T03:49:35.560Z,48.23
2018-11-28T03:52:02.711Z,49.33
2018-11-28T03:54:29.901Z,45.57
2018-11-28T03:56:57.050Z,48.20
2018-11-28T03:59:24.202Z,53.20
2018-11-28T04:01:51.361Z,47.17
2018-11-28T04:04:18.497Z,43.87
2018-11-28T04:06:45.995Z,45.33
2018-11-28T04:09:13.188Z,41.50
2018-11-28T04:11:40.395Z,52.07
2018-11-28T04:14:07.614Z,47.67
2018-11-28T04:16:34.723Z,56.50
2018-11-28T04:19:04.335Z,45.37
2018-11-28T04:21:31.695Z,49.40
2018-11-28T04:23:58.880Z,56.93
2018-11-28T04:26:26.106Z,49.33
2018-11-28T04:28:53.304Z,50.03
2018-11-28T04:31:20.456Z,47.97
2018-11-28T04:33:47.613Z,52.23
2018-11-28T04:36:14.771Z,59.73
2018-11-28T04:38:41.961Z,49.63
2018-11-28T04:41:09.110Z,52.13
2018-11-28T04:43:36.240Z,50.20
2018-11-28T04:46:03.365Z,51.43
2018-11-28T04:48:30.545Z,48.00
2018-11-28T04:50:57.696Z,45.03
2018-11-28T04:53:24.851Z,52.10
2018-11-28T04:55:52.533Z,51.73
2018-11-28T04:58:19.672Z,48.57
2018-11-28T05:00:46.837Z,53.60
2018-11-28T05:03:14.051Z,53.40
2018-11-28T05:05:41.222Z,47.33
2018-11-28T05:08:08.417Z,51.87
2018-11-28T05:10:35.565Z,45.37
2018-11-28T05:13:02.754Z,48.10
2018-11-28T05:15:31.104Z,54.17
2018-11-28T05:17:58.301Z,44.93
2018-11-28T05:20:27.288Z,47.60
2018-11-28T05:22:54.529Z,54.93
2018-11-28T05:25:22.884Z,46.80
2018-11-28T05:27:51.102Z,45.33
2018-11-28T05:30:19.282Z,47.67
2018-11-28T05:32:46.499Z,48.87
2018-11-28T05:35:14.862Z,53.80
2018-11-28T05:37:42.087Z,50.80
2018-11-28T05:40:15.572Z,44.40
2018-11-28T05:42:42.781Z,51.67
2018-11-28T05:58:10.065Z,51.20
2018-11-28T06:00:38.134Z,47.00
2018-11-28T06:03:12.991Z,52.73
2018-11-28T06:05:41.873Z,47.10
2018-11-28T06:08:09.083Z,55.13
2018-11-28T06:10:36.286Z,45.80
2018-11-28T06:13:03.583Z,64.80
2018-11-28T06:15:30.826Z,55.47
2018-11-28T06:17:58.007Z,49.43
2018-11-28T06:20:25.211Z,50.90
2018-11-28T06:22:52.389Z,55.03
2018-11-28T06:25:19.549Z,51.47
2018-11-28T06:27:46.696Z,49.57
2018-11-28T06:30:16.006Z,51.57
2018-11-28T06:32:43.203Z,57.20
2018-11-28T06:35:10.719Z,48.27
2018-11-28T06:37:37.969Z,53.23
2018-11-28T06:40:13.010Z,55.70
2018-11-28T06:42:40.285Z,45.03
2018-11-28T06:45:09.156Z,50.17
2018-11-28T06:47:36.404Z,55.97
2018-11-28T06:50:05.826Z,53.60
2018-11-28T06:52:32.927Z,49.13
2018-11-28T06:55:00.110Z,55.83
2018-11-28T06:57:27.341Z,50.83
2018-11-28T06:59:54.566Z,53.73
2018-11-28T07:02:21.734Z,47.70
2018-11-28T07:04:48.902Z,48.33
2018-11-28T07:07:16.106Z,49.27
2018-11-28T07:09:43.303Z,48.13
2018-11-28T07:12:10.422Z,51.47
2018-11-28T07:14:37.577Z,42.00
2018-11-28T07:17:05.244Z,56.53
2018-11-28T07:19:32.383Z,45.10
2018-11-28T07:21:59.543Z,54.63
2018-11-28T07:24:26.714Z,55.07
2018-11-28T07:26:53.971Z,50.67
2018-11-28T07:29:21.098Z,49.37
2018-11-28T07:31:48.262Z,48.30
2018-11-28T07:34:15.510Z,52.67
2018-11-28T07:36:42.664Z,52.77
2018-11-28T07:39:10.006Z,46.10
2018-11-28T07:41:37.142Z,51.77
2018-11-28T07:44:04.369Z,49.67
2018-11-28T07:46:31.511Z,58.70
2018-11-28T07:48:58.682Z,48.47
2018-11-28T07:51:25.793Z,47.37
2018-11-28T07:53:53.023Z,51.10
2018-11-28T07:56:20.167Z,65.97
2018-11-28T07:58:47.318Z,56.13
2018-11-28T08:01:14.482Z,51.43
2018-11-28T08:03:41.675Z,50.07
2018-11-28T08:06:08.810Z,62.10
2018-11-28T08:08:37.203Z,58.60
2018-11-28T08:11:05.522Z,49.57
2018-11-28T08:13:32.642Z,46.47
2018-11-28T08:15:59.866Z,49.40
2018-11-28T08:18:27.082Z,47.67
2018-11-28T08:20:54.338Z,49.73
2018-11-28T08:23:21.556Z,46.93
2018-11-28T08:25:48.759Z,51.70
2018-11-28T08:28:15.933Z,47.07
2018-11-28T08:30:43.147Z,57.40
2018-11-28T08:33:10.402Z,45.77
2018-11-28T08:35:37.611Z,51.10
2018-11-28T08:38:05.233Z,45.97
2018-11-28T08:40:32.470Z,51.00
2018-11-28T08:42:59.733Z,47.93
2018-11-28T08:45:26.954Z,53.20
2018-11-28T08:47:55.265Z,55.83
2018-11-28T08:50:27.562Z,54.53
2018-11-28T08:52:54.766Z,46.40
2018-11-28T08:55:21.990Z,48.93
2018-11-28T08:57:49.226Z,48.93
2018-11-28T09:00:18.987Z,58.23
2018-11-28T09:02:47.091Z,47.90
2018-11-28T09:05:14.480Z,50.47
2018-11-28T09:07:41.760Z,58.07
2018-11-28T09:10:12.094Z,50.30
2018-11-28T09:12:39.366Z,56.23
2018-11-28T09:15:09.671Z,50.73
2018-11-28T09:17:36.903Z,49.57
2018-11-28T09:20:07.626Z,48.13
2018-11-28T09:22:34.830Z,49.70
2018-11-28T09:25:02.021Z,57.03
2018-11-28T09:27:29.143Z,55.23
2018-11-28T09:29:56.359Z,52.77
2018-11-28T09:32:23.487Z,46.60
2018-11-28T09:34:50.591Z,44.37
2018-11-28T09:37:17.855Z,47.40
2018-11-28T09:39:45.358Z,60.33
2018-11-28T09:42:12.503Z,45.00
2018-11-28T09:44:39.679Z,49.03
2018-11-28T09:47:06.845Z,41.77
2018-11-28T09:52:08.041Z,45.77
2018-11-28T09:54:35.193Z,49.40
2018-11-28T09:57:02.364Z,49.10
2018-11-28T09:59:29.559Z,43.93
2018-11-28T10:01:56.705Z,46.17
2018-11-28T10:04:23.813Z,42.63
2018-11-28T10:06:50.947Z,50.77
2018-11-28T10:09:18.059Z,40.23
2018-11-28T10:11:45.236Z,45.90
2018-11-28T10:14:12.331Z,38.83
2018-11-28T10:16:39.583Z,43.80
2018-11-28T10:19:06.732Z,45.67
2018-11-28T10:21:33.904Z,36.30
2018-11-28T10:24:01.062Z,37.37
2018-11-28T10:26:28.249Z,46.43
2018-11-28T10:28:55.382Z,40.97
2018-11-28T10:31:22.650Z,43.60
2018-11-28T10:33:49.811Z,38.77
2018-11-28T10:36:17.040Z,40.80
2018-11-28T10:38:44.217Z,39.30
2018-11-28T10:41:11.379Z,41.87
2018-11-28T10:43:38.571Z,37.03
2018-11-28T10:46:05.734Z,39.63
2018-11-28T10:48:32.902Z,39.10
2018-11-28T10:51:00.077Z,43.53
2018-11-28T10:53:27.275Z,44.57
2018-11-28T10:55:54.458Z,31.37
2018-11-28T10:58:21.687Z,34.57
2018-11-28T11:00:54.494Z,34.93
2018-11-28T11:03:27.278Z,35.53
2018-11-28T11:06:00.318Z,38.03
2018-11-28T11:08:32.121Z,30.07
2018-11-28T11:11:04.863Z,34.60
2018-11-28T11:13:37.823Z,35.60
2018-11-28T11:16:05.086Z,29.80
2018-11-28T11:18:32.311Z,33.53
2018-11-28T11:20:59.502Z,33.43
2018-11-28T11:23:26.778Z,24.20
2018-11-28T11:25:54.186Z,27.40
2018-11-28T11:28:21.414Z,27.20
2018-11-28T11:30:48.679Z,22.73
2018-11-28T11:33:15.917Z,21.77
2018-11-28T11:35:43.133Z,21.33
2018-11-28T11:38:10.363Z,21.83
2018-11-28T11:40:37.551Z,19.43
2018-11-28T11:43:05.507Z,19.63
2018-11-28T11:45:32.715Z,19.23
2018-11-28T11:47:59.903Z,24.60
2018-11-28T11:50:27.060Z,17.70
2018-11-28T11:52:54.236Z,26.60
2018-11-28T11:55:21.495Z,24.13
2018-11-28T11:57:49.128Z,22.60
2018-11-28T12:00:17.752Z,23.77
2018-11-28T12:03:16.003Z,19.03
2018-11-28T12:05:58.921Z,24.97
2018-11-28T12:08:27.266Z,26.90
2018-11-28T12:10:54.507Z,29.10
2018-11-28T12:13:22.199Z,27.07
2018-11-28T12:15:49.336Z,22.73
2018-11-28T12:18:16.687Z,27.83
2018-11-28T12:20:45.466Z,27.73
2018-11-28T12:23:12.658Z,28.50
2018-11-28T12:25:39.775Z,29.03
2018-11-28T12:28:07.223Z,31.93
2018-11-28T12:30:34.426Z,25.00
2018-11-28T12:33:01.660Z,25.43
2018-11-28T12:35:28.850Z,23.93
2018-11-28T12:37:56.083Z,27.63
2018-11-28T12:40:23.265Z,26.37
2018-11-28T12:42:52.058Z,30.07
2018-11-28T12:45:20.087Z,22.67
2018-11-28T12:47:47.773Z,25.67
2018-11-28T12:50:18.167Z,25.77
2018-11-28T12:52:45.371Z,24.63
2018-11-28T12:55:12.547Z,34.20
2018-11-28T12:57:39.726Z,28.90
2018-11-28T13:00:15.156Z,20.83
2018-11-28T13:02:42.334Z,19.60
2018-11-28T13:05:11.726Z,24.00
2018-11-28T13:07:38.927Z,26.10
2018-11-28T13:10:13.178Z,23.80
2018-11-28T13:12:40.371Z,25.40
2018-11-28T13:15:09.763Z,32.87
2018-11-28T13:17:36.933Z,23.73
2018-11-28T13:20:05.705Z,21.73
2018-11-28T13:22:32.894Z,23.63
2018-11-28T13:25:00.035Z,26.77
2018-11-28T13:27:27.196Z,24.53
2018-11-28T13:29:54.420Z,28.80
2018-11-28T13:32:21.624Z,26.33
2018-11-28T13:34:49.003Z,21.63
2018-11-28T13:37:16.154Z,25.13
2018-11-28T13:39:43.295Z,26.07
2018-11-28T13:42:10.487Z,26.03
2018-11-28T13:44:37.646Z,24.23
2018-11-28T13:47:05.129Z,23.67
2018-11-28T13:49:32.274Z,30.07
2018-11-28T13:51:59.414Z,22.80
2018-11-28T13:54:26.625Z,24.63
2018-11-28T13:56:58.715Z,27.87
2018-11-28T13:59:21.014Z,27.07
2018-11-28T14:01:48.227Z,23.53
2018-11-28T14:04:15.438Z,26.20
2018-11-28T14:06:42.594Z,21.67
2018-11-28T14:09:09.813Z,26.00
2018-11-28T14:11:36.938Z,26.90
2018-11-28T14:14:04.727Z,27.23
2018-11-28T14:16:31.899Z,35.40
2018-11-28T14:18:59.084Z,38.33
2018-11-28T14:21:26.264Z,31.90
2018-11-28T14:23:53.534Z,32.00
2018-11-28T14:26:20.762Z,26.73
2018-11-28T14:28:47.909Z,27.33
2018-11-28T14:31:15.149Z,18.97
2018-11-28T14:33:42.267Z,25.87
2018-11-28T14:36:09.434Z,21.40
2018-11-28T14:38:36.578Z,23.53
2018-11-28T14:41:04.674Z,20.67
2018-11-28T14:43:31.887Z,23.37
2018-11-28T14:45:59.004Z,25.17
2018-11-28T14:48:26.248Z,20.80
2018-11-28T14:50:53.430Z,18.63
2018-11-28T14:53:21.073Z,20.07
2018-11-28T14:55:48.238Z,22.53
2018-11-28T14:58:15.491Z,22.83
2018-11-28T15:00:42.787Z,27.87
2018-11-28T15:03:13.581Z,26.40
2018-11-28T15:06:07.837Z,28.17
2018-11-28T15:08:35.075Z,30.80
2018-11-28T15:11:06.858Z,27.33
2018-11-28T15:13:34.057Z,31.60
2018-11-28T15:16:01.281Z,30.80
2018-11-28T15:18:28.396Z,39.00
2018-11-28T15:20:55.539Z,34.03
2018-11-28T15:23:22.796Z,39.40
2018-11-28T15:25:50.122Z,46.03
2018-11-28T15:28:17.358Z,40.43
2018-11-28T15:30:44.915Z,34.43
2018-11-28T15:33:12.118Z,41.93
2018-11-28T15:35:39.764Z,39.00
2018-11-28T15:38:07.150Z,37.83
2018-11-28T15:40:34.347Z,36.30
2018-11-28T15:43:01.551Z,40.93
2018-11-28T15:45:28.781Z,37.43
2018-11-28T15:47:55.966Z,37.40
2018-11-28T15:50:23.101Z,42.27
2018-11-28T15:52:50.283Z,40.13
2018-11-28T15:55:18.066Z,45.13
2018-11-28T15:57:45.003Z,41.53
2018-11-28T16:00:16.671Z,40.20
2018-11-28T16:02:44.203Z,41.43
2018-11-28T16:05:11.401Z,44.57
2018-11-28T16:07:38.597Z,42.47
2018-11-28T16:10:14.102Z,50.93
2018-11-28T16:12:41.305Z,43.53
2018-11-28T16:15:10.631Z,40.43
2018-11-28T16:17:37.871Z,53.13
2018-11-28T16:20:05.171Z,45.47
2018-11-28T16:22:32.394Z,46.80
2018-11-28T16:24:59.618Z,50.00
2018-11-28T16:27:26.785Z,45.00
2018-11-28T16:29:53.984Z,49.20
2018-11-28T16:32:21.147Z,38.47
2018-11-28T16:34:48.377Z,45.80
2018-11-28T16:37:15.531Z,47.43
2018-11-28T16:39:42.934Z,42.60
2018-11-28T16:42:10.227Z,48.10
2018-11-28T16:44:37.443Z,40.83
2018-11-28T16:47:05.072Z,52.87
2018-11-28T16:49:32.258Z,44.30
2018-11-28T16:52:00.454Z,46.50
2018-11-28T16:54:27.618Z,45.27
2018-11-28T16:56:54.820Z,46.90
2018-11-28T16:59:21.999Z,46.60
2018-11-28T17:01:49.163Z,50.07
2018-11-28T17:04:16.430Z,48.40
2018-11-28T17:06:44.047Z,48.07
2018-11-28T17:09:11.245Z,40.27
2018-11-28T17:11:38.386Z,47.20
2018-11-28T17:14:05.749Z,42.87
2018-11-28T17:16:32.937Z,44.07
2018-11-28T17:19:00.124Z,46.33
2018-11-28T17:21:27.306Z,55.73
2018-11-28T17:23:54.533Z,45.87
2018-11-28T17:26:21.871Z,42.83
2018-11-28T17:28:49.080Z,41.20
2018-11-28T17:31:22.866Z,39.03
2018-11-28T17:33:50.115Z,43.70
2018-11-28T17:36:17.322Z,39.13
2018-11-28T17:38:44.736Z,41.63
2018-11-28T17:41:11.900Z,41.80
2018-11-28T17:43:39.051Z,41.10
2018-11-28T17:46:06.307Z,33.33
2018-11-28T17:48:33.475Z,37.50
2018-11-28T17:51:00.709Z,35.37
2018-11-28T17:53:27.922Z,35.07
2018-11-28T17:55:56.982Z,36.83
2018-11-28T17:58:24.139Z,35.40
2018-11-28T18:00:51.335Z,42.93
2018-11-28T18:03:18.793Z,38.73
2018-11-28T18:05:45.966Z,40.00
2018-11-28T18:08:13.066Z,39.30
2018-11-28T18:10:40.261Z,34.43
2018-11-28T18:13:08.488Z,38.67
2018-11-28T18:15:35.962Z,39.07
2018-11-28T18:18:03.540Z,38.70
2018-11-28T18:20:30.708Z,29.63
2018-11-28T18:22:57.953Z,38.67
2018-11-28T18:25:26.430Z,35.17
2018-11-28T18:27:53.647Z,38.03
2018-11-28T18:30:20.849Z,33.73
2018-11-28T18:32:48.019Z,32.67
2018-11-28T18:35:15.180Z,34.97
2018-11-28T18:37:42.381Z,36.30
2018-11-28T18:40:11.443Z,33.97
2018-11-28T18:42:39.170Z,39.70
2018-11-28T18:45:09.429Z,34.90
2018-11-28T18:47:36.583Z,34.70
2018-11-28T18:50:04.997Z,42.27
2018-11-28T18:52:32.242Z,40.50
2018-11-28T18:54:59.419Z,40.27
2018-11-28T18:57:26.551Z,45.03
2018-11-28T18:59:53.745Z,41.37
2018-11-28T19:02:20.921Z,41.70
2018-11-28T19:04:48.099Z,41.23
2018-11-28T19:07:15.303Z,42.70
2018-11-28T19:09:49.168Z,37.43
2018-11-28T19:12:16.866Z,40.77
2018-11-28T19:14:44.841Z,42.57
2018-11-28T19:17:11.865Z,33.17
2018-11-28T19:19:39.223Z,56.13
2018-11-28T19:22:06.712Z,41.10
2018-11-28T19:24:33.904Z,60.07
2018-11-28T19:27:01.195Z,53.70
2018-11-28T19:29:28.338Z,43.33
2018-11-28T19:31:55.539Z,47.90
2018-11-28T19:34:22.791Z,49.70
2018-11-28T19:36:50.047Z,47.23
2018-11-28T19:39:17.192Z,47.30
2018-11-28T19:41:45.240Z,45.97
2018-11-28T19:44:12.392Z,47.93
2018-11-28T19:46:39.643Z,45.73
2018-11-28T19:49:06.892Z,49.90
2018-11-28T19:51:34.151Z,51.77
2018-11-28T19:54:01.389Z,42.30
2018-11-28T19:56:28.677Z,44.50
2018-11-28T19:58:55.912Z,41.87
2018-11-28T20:01:23.201Z,51.03
2018-11-28T20:03:50.410Z,46.17
2018-11-28T20:06:17.628Z,45.00
2018-11-28T20:08:45.211Z,44.03
2018-11-28T20:11:12.464Z,40.30
2018-11-28T20:13:39.790Z,43.03
2018-11-28T20:16:07.097Z,41.30
2018-11-28T20:18:34.366Z,39.97
2018-11-28T20:21:01.684Z,44.23
2018-11-28T20:23:28.943Z,43.10
2018-11-28T20:25:56.297Z,43.30
2018-11-28T20:28:23.619Z,42.70
2018-11-28T20:30:52.927Z,38.63
2018-11-28T20:33:20.171Z,41.50
2018-11-28T20:35:49.205Z,36.53
2018-11-28T20:38:23.714Z,43.53
2018-11-28T20:40:51.013Z,42.10
2018-11-28T20:43:18.264Z,43.47
2018-11-28T20:45:45.475Z,36.17
2018-11-28T20:48:13.501Z,51.13
2018-11-28T20:50:41.370Z,43.50
2018-11-28T20:53:11.125Z,45.73
2018-11-28T20:55:38.391Z,39.53
2018-11-28T20:58:05.909Z,41.10
2018-11-28T21:00:33.150Z,39.93
2018-11-28T21:03:00.368Z,42.80
2018-11-28T21:05:27.568Z,39.07
2018-11-28T21:07:54.786Z,40.67
2018-11-28T21:10:27.729Z,40.50
2018-11-28T21:12:54.888Z,42.30
2018-11-28T21:15:22.111Z,41.57
2018-11-28T21:17:49.366Z,36.70
2018-11-28T21:20:18.385Z,34.57
2018-11-28T21:22:47.979Z,37.03
2018-11-28T21:25:15.241Z,37.37
2018-11-28T21:27:42.497Z,40.77
2018-11-28T21:30:14.638Z,37.37
2018-11-28T21:32:42.039Z,44.77
2018-11-28T21:35:12.319Z,42.90
2018-11-28T21:37:39.581Z,45.03
2018-11-28T21:53:06.565Z,45.43
2018-11-28T21:55:33.781Z,40.20
2018-11-28T21:58:01.803Z,44.83
2018-11-28T22:00:29.034Z,45.23
2018-11-28T22:02:56.192Z,46.40
2018-11-28T22:05:23.826Z,53.10
2018-11-28T22:07:51.047Z,40.30
2018-11-28T22:10:21.034Z,42.37
2018-11-28T22:12:48.211Z,46.00
2018-11-28T22:15:16.504Z,39.87
2018-11-28T22:17:45.029Z,41.83
2018-11-28T22:20:12.983Z,43.07
2018-11-28T22:22:40.252Z,38.77
2018-11-28T22:25:11.695Z,40.67
2018-11-28T22:27:38.947Z,40.17
2018-11-28T22:30:07.498Z,38.53
2018-11-28T22:32:34.667Z,38.43
2018-11-28T22:35:01.830Z,36.23
2018-11-28T22:37:29.004Z,41.03
2018-11-28T22:39:56.197Z,42.13
2018-11-28T22:42:23.334Z,45.43
2018-11-28T22:44:50.550Z,34.33
2018-11-28T22:47:17.821Z,46.53
2018-11-28T22:49:44.995Z,46.23
2018-11-28T22:52:12.153Z,50.67
2018-11-28T22:54:39.301Z,46.50
2018-11-28T22:57:06.482Z,38.97
2018-11-28T22:59:33.646Z,45.23
2018-11-28T23:04:09.303Z,40.03
2018-11-28T23:06:36.467Z,38.40
2018-11-28T23:09:04.867Z,39.50
2018-11-28T23:11:32.074Z,39.20
2018-11-28T23:13:59.196Z,38.20
2018-11-28T23:16:26.383Z,38.77
2018-11-28T23:18:53.566Z,38.40
2018-11-28T23:21:20.734Z,39.13
2018-11-28T23:23:47.879Z,39.17
2018-11-28T23:26:15.004Z,36.23
2018-11-28T23:31:16.170Z,40.00
2018-11-28T23:33:43.326Z,41.00
2018-11-28T23:36:10.536Z,37.03
2018-11-28T23:38:37.653Z,40.27
2018-11-28T23:41:05.302Z,42.00
2018-11-28T23:43:32.618Z,36.77
2018-11-28T23:45:59.826Z,40.60
2018-11-28T23:48:27.006Z,36.20
2018-11-28T23:50:54.149Z,42.47
2018-11-28T23:53:21.331Z,43.37
2018-11-28T23:55:48.451Z,40.10
2018-11-28T23:58:15.577Z,38.47
